首页
METAR-TAF:

METAR-TAF

机场 :

拉多姆, 波兰

纬度: 51-23-21N, 经度: 21-12-49E, 海拔: 186米

当前天气观测

该预报发布于1小时和16分钟前的15:00 UTC
风速4节,风向西转西南
温度 12°C
湿度 58%
气压 1015 hPa
能见度10公里或以上
1500米以下无云,无积雨云

METAR: EPRA 171500Z 24004KT CAVOK 12/04 Q1015

时间: 17:16 (16:16 UTC)

预报

该预报发布于1小时和13分钟前的15:03 UTC
预报有效从17日的 15点(UTC)到 17日的 24点(UTC)
风速8节,风向西
能见度10公里或以上
1500米以下无云,无积雨云
成为
从 17日的 17点(UTC)到 17日的 19点(UTC)
风速8节,风向
几率 30% :
短暂存在
从 17日的 19点(UTC)到 17日的 24点(UTC)
能見度: 6000
多云层高于3300英尺
小雨

TAF: EPRA 171503Z 1715/1724 26008KT CAVOK BECMG 1717/1719 19008KT PROB30 TEMPO 1719/1724 6000 -RA BKN033

超过4000个机场的气象观测和天气预报(METAR&TAF报告)。

可查询的气象台以黄色和红色小点在地图上表示。

将鼠标移到小点上方,可查看气象台名称。

然后点击查看天气观测和预报。

如需切换地图:点击带黑十字的绿色按钮放大地图;点击带横线的绿色按钮缩小地图;或者点击绿色箭头查看邻近地区的地图。


METAR-TAF: